sensor_id;sensor_type;location;lat;lon;timestamp;temperature;humidity
37678;DHT22;23517;50.390;8.616;2022-08-01T00:00:13;19.80;56.90
37678;DHT22;23517;50.390;8.616;2022-08-01T00:02:40;19.70;57.30
37678;DHT22;23517;50.390;8.616;2022-08-01T00:05:08;19.50;58.00
37678;DHT22;23517;50.390;8.616;2022-08-01T00:07:36;19.40;58.40
37678;DHT22;23517;50.390;8.616;2022-08-01T00:10:05;19.40;58.70
37678;DHT22;23517;50.390;8.616;2022-08-01T00:12:34;19.30;58.90
37678;DHT22;23517;50.390;8.616;2022-08-01T00:15:01;19.10;59.60
37678;DHT22;23517;50.390;8.616;2022-08-01T00:17:28;19.10;59.90
37678;DHT22;23517;50.390;8.616;2022-08-01T00:19:54;19.10;60.10
37678;DHT22;23517;50.390;8.616;2022-08-01T00:22:21;19.20;60.10
37678;DHT22;23517;50.390;8.616;2022-08-01T00:24:48;19.40;60.20
37678;DHT22;23517;50.390;8.616;2022-08-01T00:27:15;19.60;59.90
37678;DHT22;23517;50.390;8.616;2022-08-01T00:29:41;19.80;59.00
37678;DHT22;23517;50.390;8.616;2022-08-01T00:32:31;20.00;58.30
37678;DHT22;23517;50.390;8.616;2022-08-01T00:34:58;20.10;57.80
37678;DHT22;23517;50.390;8.616;2022-08-01T00:37:24;20.30;57.50
37678;DHT22;23517;50.390;8.616;2022-08-01T00:39:51;20.30;57.10
37678;DHT22;23517;50.390;8.616;2022-08-01T00:42:18;20.40;56.60
37678;DHT22;23517;50.390;8.616;2022-08-01T00:44:45;20.40;56.50
37678;DHT22;23517;50.390;8.616;2022-08-01T00:47:12;20.40;56.40
37678;DHT22;23517;50.390;8.616;2022-08-01T00:49:39;20.40;56.40
37678;DHT22;23517;50.390;8.616;2022-08-01T00:52:06;20.50;56.40
37678;DHT22;23517;50.390;8.616;2022-08-01T00:54:35;20.40;56.60
37678;DHT22;23517;50.390;8.616;2022-08-01T00:57:03;20.40;56.60
37678;DHT22;23517;50.390;8.616;2022-08-01T00:59:30;20.40;56.60
37678;DHT22;23517;50.390;8.616;2022-08-01T01:01:59;20.40;56.70
37678;DHT22;23517;50.390;8.616;2022-08-01T01:04:26;20.40;56.70
37678;DHT22;23517;50.390;8.616;2022-08-01T01:09:46;20.40;56.70
37678;DHT22;23517;50.390;8.616;2022-08-01T01:12:32;20.50;56.60
37678;DHT22;23517;50.390;8.616;2022-08-01T01:17:57;20.40;56.80
37678;DHT22;23517;50.390;8.616;2022-08-01T01:20:30;20.40;56.80
37678;DHT22;23517;50.390;8.616;2022-08-01T01:26:57;20.30;57.30
37678;DHT22;23517;50.390;8.616;2022-08-01T01:29:32;20.30;57.30
37678;DHT22;23517;50.390;8.616;2022-08-01T01:32:30;20.30;57.50
37678;DHT22;23517;50.390;8.616;2022-08-01T01:35:08;20.20;57.50
37678;DHT22;23517;50.390;8.616;2022-08-01T01:37:40;20.20;57.70
37678;DHT22;23517;50.390;8.616;2022-08-01T01:40:09;20.20;57.90
37678;DHT22;23517;50.390;8.616;2022-08-01T01:42:38;20.20;57.90
37678;DHT22;23517;50.390;8.616;2022-08-01T01:45:08;20.20;57.80
37678;DHT22;23517;50.390;8.616;2022-08-01T01:47:36;20.30;58.10
37678;DHT22;23517;50.390;8.616;2022-08-01T01:50:05;20.30;57.80
37678;DHT22;23517;50.390;8.616;2022-08-01T01:52:36;20.30;58.10
37678;DHT22;23517;50.390;8.616;2022-08-01T01:55:06;20.30;58.10
37678;DHT22;23517;50.390;8.616;2022-08-01T01:57:40;20.30;58.00
37678;DHT22;23517;50.390;8.616;2022-08-01T02:00:18;20.30;58.10
37678;DHT22;23517;50.390;8.616;2022-08-01T02:02:45;20.20;58.90
37678;DHT22;23517;50.390;8.616;2022-08-01T02:05:13;20.20;58.40
37678;DHT22;23517;50.390;8.616;2022-08-01T02:07:41;20.20;58.80
37678;DHT22;23517;50.390;8.616;2022-08-01T02:10:10;20.20;58.80
37678;DHT22;23517;50.390;8.616;2022-08-01T02:12:41;20.20;58.70
37678;DHT22;23517;50.390;8.616;2022-08-01T02:15:09;20.20;58.50
37678;DHT22;23517;50.390;8.616;2022-08-01T02:17:42;20.20;58.50
37678;DHT22;23517;50.390;8.616;2022-08-01T02:20:12;20.20;58.40
37678;DHT22;23517;50.390;8.616;2022-08-01T02:23:04;20.20;58.20
37678;DHT22;23517;50.390;8.616;2022-08-01T02:25:42;20.20;58.10
37678;DHT22;23517;50.390;8.616;2022-08-01T02:28:36;20.20;58.40
37678;DHT22;23517;50.390;8.616;2022-08-01T02:31:12;20.10;58.60
37678;DHT22;23517;50.390;8.616;2022-08-01T02:33:45;20.10;58.50
37678;DHT22;23517;50.390;8.616;2022-08-01T02:36:18;20.00;58.50
37678;DHT22;23517;50.390;8.616;2022-08-01T02:39:02;20.00;58.40
37678;DHT22;23517;50.390;8.616;2022-08-01T02:41:30;20.00;58.70
37678;DHT22;23517;50.390;8.616;2022-08-01T02:44:02;20.00;58.80
37678;DHT22;23517;50.390;8.616;2022-08-01T02:46:39;20.00;59.30
37678;DHT22;23517;50.390;8.616;2022-08-01T02:49:09;20.00;58.90
37678;DHT22;23517;50.390;8.616;2022-08-01T02:51:38;20.10;58.70
37678;DHT22;23517;50.390;8.616;2022-08-01T02:54:07;20.10;58.40
37678;DHT22;23517;50.390;8.616;2022-08-01T02:56:35;20.10;58.40
37678;DHT22;23517;50.390;8.616;2022-08-01T02:59:09;20.10;57.70
37678;DHT22;23517;50.390;8.616;2022-08-01T03:01:41;20.00;58.50
37678;DHT22;23517;50.390;8.616;2022-08-01T03:04:10;20.00;58.50
37678;DHT22;23517;50.390;8.616;2022-08-01T03:06:38;19.90;58.60
37678;DHT22;23517;50.390;8.616;2022-08-01T03:09:08;19.90;58.80
37678;DHT22;23517;50.390;8.616;2022-08-01T03:11:37;19.90;59.10
37678;DHT22;23517;50.390;8.616;2022-08-01T03:14:08;19.90;59.20
37678;DHT22;23517;50.390;8.616;2022-08-01T03:16:38;19.90;59.20
37678;DHT22;23517;50.390;8.616;2022-08-01T03:19:09;19.80;59.00
37678;DHT22;23517;50.390;8.616;2022-08-01T03:21:39;19.80;59.10
37678;DHT22;23517;50.390;8.616;2022-08-01T03:24:08;19.80;59.20
37678;DHT22;23517;50.390;8.616;2022-08-01T03:26:38;19.80;59.30
37678;DHT22;23517;50.390;8.616;2022-08-01T03:29:10;19.80;59.50
37678;DHT22;23517;50.390;8.616;2022-08-01T03:31:43;19.70;59.90
37678;DHT22;23517;50.390;8.616;2022-08-01T03:34:11;19.70;59.70
37678;DHT22;23517;50.390;8.616;2022-08-01T03:36:48;19.70;59.80
37678;DHT22;23517;50.390;8.616;2022-08-01T03:39:18;19.70;59.90
37678;DHT22;23517;50.390;8.616;2022-08-01T03:41:54;19.70;60.10
37678;DHT22;23517;50.390;8.616;2022-08-01T03:44:25;19.60;60.40
37678;DHT22;23517;50.390;8.616;2022-08-01T03:47:00;19.60;60.40
37678;DHT22;23517;50.390;8.616;2022-08-01T03:49:31;19.50;60.20
37678;DHT22;23517;50.390;8.616;2022-08-01T03:52:02;19.50;60.40
37678;DHT22;23517;50.390;8.616;2022-08-01T03:54:33;19.50;60.80
37678;DHT22;23517;50.390;8.616;2022-08-01T03:57:02;19.40;60.90
37678;DHT22;23517;50.390;8.616;2022-08-01T03:59:30;19.40;60.90
37678;DHT22;23517;50.390;8.616;2022-08-01T04:01:58;19.40;61.20
37678;DHT22;23517;50.390;8.616;2022-08-01T04:04:26;19.40;61.40
37678;DHT22;23517;50.390;8.616;2022-08-01T04:06:52;19.30;61.40
37678;DHT22;23517;50.390;8.616;2022-08-01T04:09:21;19.30;61.40
37678;DHT22;23517;50.390;8.616;2022-08-01T04:11:48;19.30;61.50
37678;DHT22;23517;50.390;8.616;2022-08-01T04:14:15;19.30;61.40
37678;DHT22;23517;50.390;8.616;2022-08-01T04:16:42;19.40;60.90
37678;DHT22;23517;50.390;8.616;2022-08-01T04:19:11;19.30;61.70
37678;DHT22;23517;50.390;8.616;2022-08-01T04:21:38;19.20;61.30
37678;DHT22;23517;50.390;8.616;2022-08-01T04:24:13;19.10;61.80
37678;DHT22;23517;50.390;8.616;2022-08-01T04:26:44;19.20;62.00
37678;DHT22;23517;50.390;8.616;2022-08-01T04:29:14;19.20;61.80
37678;DHT22;23517;50.390;8.616;2022-08-01T04:31:45;19.20;61.80
37678;DHT22;23517;50.390;8.616;2022-08-01T04:34:15;19.30;62.20
37678;DHT22;23517;50.390;8.616;2022-08-01T04:36:45;19.40;62.60
37678;DHT22;23517;50.390;8.616;2022-08-01T04:39:13;19.50;62.50
37678;DHT22;23517;50.390;8.616;2022-08-01T04:41:41;19.50;62.10
37678;DHT22;23517;50.390;8.616;2022-08-01T04:44:08;19.60;61.70
37678;DHT22;23517;50.390;8.616;2022-08-01T04:46:35;19.60;61.10
37678;DHT22;23517;50.390;8.616;2022-08-01T04:49:06;19.70;60.90
37678;DHT22;23517;50.390;8.616;2022-08-01T04:51:35;19.70;61.20
37678;DHT22;23517;50.390;8.616;2022-08-01T04:54:02;19.70;60.90
37678;DHT22;23517;50.390;8.616;2022-08-01T04:56:29;19.80;60.70
37678;DHT22;23517;50.390;8.616;2022-08-01T04:58:56;19.90;60.50
37678;DHT22;23517;50.390;8.616;2022-08-01T05:01:48;20.00;60.30
37678;DHT22;23517;50.390;8.616;2022-08-01T05:04:18;20.20;59.50
37678;DHT22;23517;50.390;8.616;2022-08-01T05:06:45;20.20;58.90
37678;DHT22;23517;50.390;8.616;2022-08-01T05:09:11;20.20;58.90
37678;DHT22;23517;50.390;8.616;2022-08-01T05:11:38;20.20;58.80
37678;DHT22;23517;50.390;8.616;2022-08-01T05:14:05;20.20;59.00
37678;DHT22;23517;50.390;8.616;2022-08-01T05:16:32;20.30;58.70
37678;DHT22;23517;50.390;8.616;2022-08-01T05:18:59;20.50;58.40
37678;DHT22;23517;50.390;8.616;2022-08-01T05:21:26;20.60;58.10
37678;DHT22;23517;50.390;8.616;2022-08-01T05:23:53;20.80;57.00
37678;DHT22;23517;50.390;8.616;2022-08-01T05:26:19;20.90;57.50
37678;DHT22;23517;50.390;8.616;2022-08-01T05:28:46;20.90;56.70
37678;DHT22;23517;50.390;8.616;2022-08-01T05:31:13;21.00;56.40
37678;DHT22;23517;50.390;8.616;2022-08-01T05:33:40;21.00;56.20
37678;DHT22;23517;50.390;8.616;2022-08-01T05:36:06;21.30;55.20
37678;DHT22;23517;50.390;8.616;2022-08-01T05:38:33;21.40;54.70
37678;DHT22;23517;50.390;8.616;2022-08-01T05:41:00;21.50;54.30
37678;DHT22;23517;50.390;8.616;2022-08-01T05:43:27;21.30;54.80
37678;DHT22;23517;50.390;8.616;2022-08-01T05:45:55;21.20;55.00
37678;DHT22;23517;50.390;8.616;2022-08-01T05:48:22;21.30;55.00
37678;DHT22;23517;50.390;8.616;2022-08-01T05:50:48;21.50;55.70
37678;DHT22;23517;50.390;8.616;2022-08-01T05:53:16;21.70;54.40
37678;DHT22;23517;50.390;8.616;2022-08-01T05:55:44;21.70;54.30
37678;DHT22;23517;50.390;8.616;2022-08-01T05:58:11;21.70;54.30
37678;DHT22;23517;50.390;8.616;2022-08-01T06:00:38;21.80;54.10
37678;DHT22;23517;50.390;8.616;2022-08-01T06:03:05;21.90;54.40
37678;DHT22;23517;50.390;8.616;2022-08-01T06:05:32;21.90;54.20
37678;DHT22;23517;50.390;8.616;2022-08-01T06:07:59;22.00;53.60
37678;DHT22;23517;50.390;8.616;2022-08-01T06:10:25;21.90;53.90
37678;DHT22;23517;50.390;8.616;2022-08-01T06:12:52;21.80;54.20
37678;DHT22;23517;50.390;8.616;2022-08-01T06:15:19;21.70;54.80
37678;DHT22;23517;50.390;8.616;2022-08-01T06:17:46;21.70;54.90
37678;DHT22;23517;50.390;8.616;2022-08-01T06:20:13;21.70;55.20
37678;DHT22;23517;50.390;8.616;2022-08-01T06:22:39;21.60;55.50
37678;DHT22;23517;50.390;8.616;2022-08-01T06:25:07;21.60;55.70
37678;DHT22;23517;50.390;8.616;2022-08-01T06:27:34;21.60;55.20
37678;DHT22;23517;50.390;8.616;2022-08-01T06:30:03;21.60;55.10
37678;DHT22;23517;50.390;8.616;2022-08-01T06:32:30;21.60;55.30
37678;DHT22;23517;50.390;8.616;2022-08-01T06:34:57;21.60;55.60
37678;DHT22;23517;50.390;8.616;2022-08-01T06:37:28;21.50;56.30
37678;DHT22;23517;50.390;8.616;2022-08-01T06:40:03;21.30;56.80
37678;DHT22;23517;50.390;8.616;2022-08-01T06:42:30;21.30;57.10
37678;DHT22;23517;50.390;8.616;2022-08-01T06:45:05;21.20;57.10
37678;DHT22;23517;50.390;8.616;2022-08-01T06:47:39;21.20;57.70
37678;DHT22;23517;50.390;8.616;2022-08-01T06:50:08;21.20;57.70
37678;DHT22;23517;50.390;8.616;2022-08-01T06:52:37;21.30;57.50
37678;DHT22;23517;50.390;8.616;2022-08-01T06:55:04;21.40;57.30
37678;DHT22;23517;50.390;8.616;2022-08-01T06:57:31;21.40;57.20
37678;DHT22;23517;50.390;8.616;2022-08-01T07:00:05;21.40;57.90
37678;DHT22;23517;50.390;8.616;2022-08-01T07:02:35;21.70;56.80
37678;DHT22;23517;50.390;8.616;2022-08-01T07:05:03;21.80;56.00
37678;DHT22;23517;50.390;8.616;2022-08-01T07:07:31;21.90;55.10
37678;DHT22;23517;50.390;8.616;2022-08-01T07:09:57;21.90;55.20
37678;DHT22;23517;50.390;8.616;2022-08-01T07:12:24;21.80;55.70
37678;DHT22;23517;50.390;8.616;2022-08-01T07:14:51;22.00;55.50
37678;DHT22;23517;50.390;8.616;2022-08-01T07:17:18;22.10;54.70
37678;DHT22;23517;50.390;8.616;2022-08-01T07:19:47;22.20;54.40
37678;DHT22;23517;50.390;8.616;2022-08-01T07:22:14;22.30;53.70
37678;DHT22;23517;50.390;8.616;2022-08-01T07:24:49;22.40;54.10
37678;DHT22;23517;50.390;8.616;2022-08-01T07:27:20;22.50;53.50
37678;DHT22;23517;50.390;8.616;2022-08-01T07:29:50;22.40;52.70
37678;DHT22;23517;50.390;8.616;2022-08-01T07:32:18;22.40;52.70
37678;DHT22;23517;50.390;8.616;2022-08-01T07:34:44;22.50;51.60
37678;DHT22;23517;50.390;8.616;2022-08-01T07:37:11;22.50;51.60
37678;DHT22;23517;50.390;8.616;2022-08-01T07:39:38;22.60;51.50
37678;DHT22;23517;50.390;8.616;2022-08-01T07:42:05;22.70;51.20
37678;DHT22;23517;50.390;8.616;2022-08-01T07:44:35;22.90;50.50
37678;DHT22;23517;50.390;8.616;2022-08-01T07:47:02;23.30;49.80
37678;DHT22;23517;50.390;8.616;2022-08-01T07:49:29;23.70;46.90
37678;DHT22;23517;50.390;8.616;2022-08-01T07:52:02;23.70;46.80
37678;DHT22;23517;50.390;8.616;2022-08-01T07:54:33;23.90;46.10
37678;DHT22;23517;50.390;8.616;2022-08-01T07:57:02;24.30;46.00
37678;DHT22;23517;50.390;8.616;2022-08-01T07:59:29;24.60;44.20
37678;DHT22;23517;50.390;8.616;2022-08-01T08:01:56;25.00;42.80
37678;DHT22;23517;50.390;8.616;2022-08-01T08:04:23;25.60;40.50
37678;DHT22;23517;50.390;8.616;2022-08-01T08:06:50;25.80;39.00
37678;DHT22;23517;50.390;8.616;2022-08-01T08:09:18;25.60;39.90
37678;DHT22;23517;50.390;8.616;2022-08-01T08:11:46;25.60;39.30
37678;DHT22;23517;50.390;8.616;2022-08-01T08:14:15;25.80;39.80
37678;DHT22;23517;50.390;8.616;2022-08-01T08:16:43;26.00;38.90
37678;DHT22;23517;50.390;8.616;2022-08-01T08:19:10;26.00;38.40
37678;DHT22;23517;50.390;8.616;2022-08-01T08:21:38;25.70;38.90
37678;DHT22;23517;50.390;8.616;2022-08-01T08:24:08;25.40;39.40
37678;DHT22;23517;50.390;8.616;2022-08-01T08:27:02;25.00;39.80
37678;DHT22;23517;50.390;8.616;2022-08-01T08:29:31;24.90;41.10
37678;DHT22;23517;50.390;8.616;2022-08-01T08:32:01;25.20;40.50
37678;DHT22;23517;50.390;8.616;2022-08-01T08:34:28;25.20;40.40
37678;DHT22;23517;50.390;8.616;2022-08-01T08:36:55;25.50;38.80
37678;DHT22;23517;50.390;8.616;2022-08-01T08:39:25;25.60;38.10
37678;DHT22;23517;50.390;8.616;2022-08-01T08:41:52;26.70;37.30
37678;DHT22;23517;50.390;8.616;2022-08-01T08:44:19;27.70;34.40
37678;DHT22;23517;50.390;8.616;2022-08-01T08:46:51;28.60;33.40
37678;DHT22;23517;50.390;8.616;2022-08-01T08:49:25;29.70;30.30
37678;DHT22;23517;50.390;8.616;2022-08-01T08:52:03;31.80;27.00
37678;DHT22;23517;50.390;8.616;2022-08-01T08:54:32;33.30;22.90
37678;DHT22;23517;50.390;8.616;2022-08-01T08:57:00;34.30;22.40
37678;DHT22;23517;50.390;8.616;2022-08-01T08:59:27;35.20;19.70
37678;DHT22;23517;50.390;8.616;2022-08-01T09:01:55;34.50;20.80
37678;DHT22;23517;50.390;8.616;2022-08-01T09:04:24;33.80;21.20
37678;DHT22;23517;50.390;8.616;2022-08-01T09:09:21;32.50;21.80
37678;DHT22;23517;50.390;8.616;2022-08-01T09:11:47;31.30;25.10
37678;DHT22;23517;50.390;8.616;2022-08-01T09:14:22;30.30;26.40
37678;DHT22;23517;50.390;8.616;2022-08-01T09:19:38;30.60;26.60
37678;DHT22;23517;50.390;8.616;2022-08-01T09:24:40;34.40;19.70
37678;DHT22;23517;50.390;8.616;2022-08-01T09:27:20;35.90;19.20
37678;DHT22;23517;50.390;8.616;2022-08-01T09:29:51;36.40;18.40
37678;DHT22;23517;50.390;8.616;2022-08-01T09:32:29;36.10;18.10
37678;DHT22;23517;50.390;8.616;2022-08-01T09:35:28;36.60;18.00
37678;DHT22;23517;50.390;8.616;2022-08-01T09:38:20;36.50;18.00
37678;DHT22;23517;50.390;8.616;2022-08-01T09:43:20;33.10;21.10
37678;DHT22;23517;50.390;8.616;2022-08-01T09:45:48;34.00;20.20
37678;DHT22;23517;50.390;8.616;2022-08-01T09:48:20;34.20;20.20
37678;DHT22;23517;50.390;8.616;2022-08-01T09:50:57;35.10;19.80
37678;DHT22;23517;50.390;8.616;2022-08-01T09:53:44;34.20;19.80
37678;DHT22;23517;50.390;8.616;2022-08-01T09:56:19;32.70;21.20
37678;DHT22;23517;50.390;8.616;2022-08-01T09:58:55;31.30;23.40
37678;DHT22;23517;50.390;8.616;2022-08-01T10:01:52;30.40;24.60
37678;DHT22;23517;50.390;8.616;2022-08-01T10:04:20;29.20;27.10
37678;DHT22;23517;50.390;8.616;2022-08-01T10:06:49;28.40;27.90
37678;DHT22;23517;50.390;8.616;2022-08-01T10:09:31;29.40;27.20
37678;DHT22;23517;50.390;8.616;2022-08-01T10:12:06;31.20;24.90
37678;DHT22;23517;50.390;8.616;2022-08-01T10:14:43;33.30;21.60
37678;DHT22;23517;50.390;8.616;2022-08-01T10:17:14;35.10;19.50
37678;DHT22;23517;50.390;8.616;2022-08-01T10:19:45;35.20;19.40
37678;DHT22;23517;50.390;8.616;2022-08-01T10:22:14;34.30;19.60
37678;DHT22;23517;50.390;8.616;2022-08-01T10:24:47;32.50;21.50
37678;DHT22;23517;50.390;8.616;2022-08-01T10:27:15;31.00;24.30
37678;DHT22;23517;50.390;8.616;2022-08-01T10:30:03;29.90;25.30
37678;DHT22;23517;50.390;8.616;2022-08-01T10:32:50;29.40;26.90
37678;DHT22;23517;50.390;8.616;2022-08-01T10:35:21;28.80;28.40
37678;DHT22;23517;50.390;8.616;2022-08-01T10:38:07;28.50;29.80
37678;DHT22;23517;50.390;8.616;2022-08-01T10:40:40;28.50;28.90
37678;DHT22;23517;50.390;8.616;2022-08-01T10:43:09;28.70;27.20
37678;DHT22;23517;50.390;8.616;2022-08-01T10:45:37;28.80;26.40
37678;DHT22;23517;50.390;8.616;2022-08-01T10:50:53;28.30;27.60
37678;DHT22;23517;50.390;8.616;2022-08-01T10:53:24;27.60;27.50
37678;DHT22;23517;50.390;8.616;2022-08-01T10:56:08;27.40;27.80
37678;DHT22;23517;50.390;8.616;2022-08-01T10:58:42;27.00;29.60
37678;DHT22;23517;50.390;8.616;2022-08-01T11:01:24;26.90;29.90
37678;DHT22;23517;50.390;8.616;2022-08-01T11:04:10;26.70;31.20
37678;DHT22;23517;50.390;8.616;2022-08-01T11:06:53;26.40;32.40
37678;DHT22;23517;50.390;8.616;2022-08-01T11:09:30;26.40;32.30
37678;DHT22;23517;50.390;8.616;2022-08-01T11:12:12;26.60;32.00
37678;DHT22;23517;50.390;8.616;2022-08-01T11:17:39;27.40;29.50
37678;DHT22;23517;50.390;8.616;2022-08-01T11:20:10;27.50;28.90
37678;DHT22;23517;50.390;8.616;2022-08-01T11:28:32;28.30;28.00
37678;DHT22;23517;50.390;8.616;2022-08-01T11:41:27;28.20;26.40
37678;DHT22;23517;50.390;8.616;2022-08-01T11:44:09;28.00;27.50
37678;DHT22;23517;50.390;8.616;2022-08-01T11:49:45;27.90;27.80
37678;DHT22;23517;50.390;8.616;2022-08-01T11:52:28;27.70;28.40
37678;DHT22;23517;50.390;8.616;2022-08-01T11:55:06;27.70;28.80
37678;DHT22;23517;50.390;8.616;2022-08-01T11:57:36;27.70;28.90
37678;DHT22;23517;50.390;8.616;2022-08-01T12:00:18;27.50;29.50
37678;DHT22;23517;50.390;8.616;2022-08-01T12:02:46;27.40;29.90
37678;DHT22;23517;50.390;8.616;2022-08-01T12:05:15;27.20;30.30
37678;DHT22;23517;50.390;8.616;2022-08-01T12:07:45;27.10;30.40
37678;DHT22;23517;50.390;8.616;2022-08-01T12:10:18;27.20;30.00
37678;DHT22;23517;50.390;8.616;2022-08-01T12:12:48;27.40;29.60
37678;DHT22;23517;50.390;8.616;2022-08-01T12:15:18;27.60;28.90
37678;DHT22;23517;50.390;8.616;2022-08-01T12:17:50;27.90;28.00
37678;DHT22;23517;50.390;8.616;2022-08-01T12:20:27;28.20;27.20
37678;DHT22;23517;50.390;8.616;2022-08-01T12:23:14;28.30;27.20
37678;DHT22;23517;50.390;8.616;2022-08-01T12:25:42;28.70;26.10
37678;DHT22;23517;50.390;8.616;2022-08-01T12:28:14;28.70;25.30
37678;DHT22;23517;50.390;8.616;2022-08-01T12:30:41;28.80;24.40
37678;DHT22;23517;50.390;8.616;2022-08-01T12:33:10;28.90;24.50
37678;DHT22;23517;50.390;8.616;2022-08-01T12:35:43;28.80;23.50
37678;DHT22;23517;50.390;8.616;2022-08-01T12:38:18;28.40;24.30
37678;DHT22;23517;50.390;8.616;2022-08-01T12:40:49;28.40;24.40
37678;DHT22;23517;50.390;8.616;2022-08-01T12:43:20;28.50;24.80
37678;DHT22;23517;50.390;8.616;2022-08-01T12:45:57;28.50;25.10
37678;DHT22;23517;50.390;8.616;2022-08-01T12:48:26;28.60;25.20
37678;DHT22;23517;50.390;8.616;2022-08-01T12:50:54;28.60;25.60
37678;DHT22;23517;50.390;8.616;2022-08-01T12:53:23;28.60;24.60
37678;DHT22;23517;50.390;8.616;2022-08-01T12:55:54;28.50;24.90
37678;DHT22;23517;50.390;8.616;2022-08-01T12:58:31;28.60;24.60
37678;DHT22;23517;50.390;8.616;2022-08-01T13:01:09;28.90;24.40
37678;DHT22;23517;50.390;8.616;2022-08-01T13:03:38;28.70;26.60
37678;DHT22;23517;50.390;8.616;2022-08-01T13:06:12;28.50;27.10
37678;DHT22;23517;50.390;8.616;2022-08-01T13:08:42;28.50;27.10
37678;DHT22;23517;50.390;8.616;2022-08-01T13:11:11;28.40;26.20
37678;DHT22;23517;50.390;8.616;2022-08-01T13:13:51;28.30;26.90
37678;DHT22;23517;50.390;8.616;2022-08-01T13:16:22;28.30;27.20
37678;DHT22;23517;50.390;8.616;2022-08-01T13:18:59;28.40;27.20
37678;DHT22;23517;50.390;8.616;2022-08-01T13:21:28;28.30;27.20
37678;DHT22;23517;50.390;8.616;2022-08-01T13:24:15;28.30;27.90
37678;DHT22;23517;50.390;8.616;2022-08-01T13:26:57;28.30;27.40
37678;DHT22;23517;50.390;8.616;2022-08-01T13:29:37;28.50;26.60
37678;DHT22;23517;50.390;8.616;2022-08-01T13:32:20;28.40;27.10
37678;DHT22;23517;50.390;8.616;2022-08-01T13:35:06;28.50;26.30
37678;DHT22;23517;50.390;8.616;2022-08-01T13:37:36;28.70;26.20
37678;DHT22;23517;50.390;8.616;2022-08-01T13:40:08;28.70;25.70
37678;DHT22;23517;50.390;8.616;2022-08-01T13:42:36;28.70;25.40
37678;DHT22;23517;50.390;8.616;2022-08-01T13:45:04;28.70;24.80
37678;DHT22;23517;50.390;8.616;2022-08-01T13:47:41;28.50;25.30
37678;DHT22;23517;50.390;8.616;2022-08-01T13:50:28;28.50;25.40
37678;DHT22;23517;50.390;8.616;2022-08-01T13:52:55;28.40;25.80
37678;DHT22;23517;50.390;8.616;2022-08-01T13:55:21;28.40;27.10
37678;DHT22;23517;50.390;8.616;2022-08-01T13:57:56;28.30;27.30
37678;DHT22;23517;50.390;8.616;2022-08-01T14:00:22;28.20;27.50
37678;DHT22;23517;50.390;8.616;2022-08-01T14:02:49;28.00;27.70
37678;DHT22;23517;50.390;8.616;2022-08-01T14:05:16;27.70;28.10
37678;DHT22;23517;50.390;8.616;2022-08-01T14:07:42;27.70;28.40
37678;DHT22;23517;50.390;8.616;2022-08-01T14:10:14;27.70;28.40
37678;DHT22;23517;50.390;8.616;2022-08-01T14:12:46;27.90;27.90
37678;DHT22;23517;50.390;8.616;2022-08-01T14:15:14;27.90;27.30
37678;DHT22;23517;50.390;8.616;2022-08-01T14:18:01;28.00;27.30
37678;DHT22;23517;50.390;8.616;2022-08-01T14:20:27;28.10;26.70
37678;DHT22;23517;50.390;8.616;2022-08-01T14:22:54;28.10;26.50
37678;DHT22;23517;50.390;8.616;2022-08-01T14:25:21;28.00;26.70
37678;DHT22;23517;50.390;8.616;2022-08-01T14:28:08;28.00;26.90
37678;DHT22;23517;50.390;8.616;2022-08-01T14:30:36;28.00;27.40
37678;DHT22;23517;50.390;8.616;2022-08-01T14:33:03;28.00;27.60
37678;DHT22;23517;50.390;8.616;2022-08-01T14:35:30;28.10;26.90
37678;DHT22;23517;50.390;8.616;2022-08-01T14:38:16;28.10;26.30
37678;DHT22;23517;50.390;8.616;2022-08-01T14:40:57;28.00;27.00
37678;DHT22;23517;50.390;8.616;2022-08-01T14:43:24;28.00;26.50
37678;DHT22;23517;50.390;8.616;2022-08-01T14:45:59;28.00;26.70
37678;DHT22;23517;50.390;8.616;2022-08-01T14:48:29;28.00;27.30
37678;DHT22;23517;50.390;8.616;2022-08-01T14:50:57;27.90;27.60
37678;DHT22;23517;50.390;8.616;2022-08-01T14:53:25;28.00;28.00
37678;DHT22;23517;50.390;8.616;2022-08-01T14:55:51;28.10;27.30
37678;DHT22;23517;50.390;8.616;2022-08-01T14:58:18;28.10;27.20
37678;DHT22;23517;50.390;8.616;2022-08-01T15:00:45;28.10;26.50
37678;DHT22;23517;50.390;8.616;2022-08-01T15:03:12;28.10;25.50
37678;DHT22;23517;50.390;8.616;2022-08-01T15:05:39;28.00;25.70
37678;DHT22;23517;50.390;8.616;2022-08-01T15:08:06;28.10;25.70
37678;DHT22;23517;50.390;8.616;2022-08-01T15:10:33;28.10;25.90
37678;DHT22;23517;50.390;8.616;2022-08-01T15:13:00;28.00;25.80
37678;DHT22;23517;50.390;8.616;2022-08-01T15:15:27;28.10;26.00
37678;DHT22;23517;50.390;8.616;2022-08-01T15:17:56;28.10;25.60
37678;DHT22;23517;50.390;8.616;2022-08-01T15:20:23;28.00;25.40
37678;DHT22;23517;50.390;8.616;2022-08-01T15:22:51;28.00;25.80
37678;DHT22;23517;50.390;8.616;2022-08-01T15:25:19;28.10;26.60
37678;DHT22;23517;50.390;8.616;2022-08-01T15:27:46;28.00;26.50
37678;DHT22;23517;50.390;8.616;2022-08-01T15:30:13;27.60;26.80
37678;DHT22;23517;50.390;8.616;2022-08-01T15:32:39;27.60;27.50
37678;DHT22;23517;50.390;8.616;2022-08-01T15:35:06;27.50;27.40
37678;DHT22;23517;50.390;8.616;2022-08-01T15:37:36;27.60;27.20
37678;DHT22;23517;50.390;8.616;2022-08-01T15:40:09;27.60;27.00
37678;DHT22;23517;50.390;8.616;2022-08-01T15:42:37;27.40;26.50
37678;DHT22;23517;50.390;8.616;2022-08-01T15:45:06;27.30;26.40
37678;DHT22;23517;50.390;8.616;2022-08-01T15:47:38;27.10;27.30
37678;DHT22;23517;50.390;8.616;2022-08-01T15:50:05;27.10;27.50
37678;DHT22;23517;50.390;8.616;2022-08-01T15:52:33;27.00;27.90
37678;DHT22;23517;50.390;8.616;2022-08-01T15:55:00;26.80;27.90
37678;DHT22;23517;50.390;8.616;2022-08-01T15:57:27;26.80;28.50
37678;DHT22;23517;50.390;8.616;2022-08-01T15:59:53;26.70;28.70
37678;DHT22;23517;50.390;8.616;2022-08-01T16:02:20;26.60;28.50
37678;DHT22;23517;50.390;8.616;2022-08-01T16:04:47;26.60;28.70
37678;DHT22;23517;50.390;8.616;2022-08-01T16:07:14;26.60;29.00
37678;DHT22;23517;50.390;8.616;2022-08-01T16:09:40;26.60;29.20
37678;DHT22;23517;50.390;8.616;2022-08-01T16:12:07;26.70;29.70
37678;DHT22;23517;50.390;8.616;2022-08-01T16:14:36;26.60;30.00
37678;DHT22;23517;50.390;8.616;2022-08-01T16:17:03;26.60;30.20
37678;DHT22;23517;50.390;8.616;2022-08-01T16:19:30;26.60;30.20
37678;DHT22;23517;50.390;8.616;2022-08-01T16:21:58;26.70;30.20
37678;DHT22;23517;50.390;8.616;2022-08-01T16:24:25;26.80;30.00
37678;DHT22;23517;50.390;8.616;2022-08-01T16:26:55;26.90;29.90
37678;DHT22;23517;50.390;8.616;2022-08-01T16:29:22;26.90;29.50
37678;DHT22;23517;50.390;8.616;2022-08-01T16:31:49;26.90;29.50
37678;DHT22;23517;50.390;8.616;2022-08-01T16:34:35;27.00;30.00
37678;DHT22;23517;50.390;8.616;2022-08-01T16:37:06;27.00;29.80